The Woodlands, Texas
Current Conditions -  °F | °C
As of 5:53 AM on Monday 26 Jan 2015 (Local Time) from KDWH Reporting Station
Clear Clear  
Wind Chill: 48°   Ceiling: Unl
Heat Index: 48°   Visibility: 10mi
Dew Point: 28°   Wind: 3mph
Humidity: 46%   Direction: 320°NW
Pressure: 30.2"   Gusts: NA
Location:  30.16°N, 95.45°W
Report Text: KDWH 261153Z 32003KT 10SM CLR 09/M02 A3020 RMK AO2 SLP224 T00891022 10139 20089 53012
Loading
Personal Weather Stations






























Interactive Weather Map New forecast layout! Learn more

10-Day Weather Forecast

Advertisements
Track Severe Weather on mobile